sensor_id;sensor_type;location;lat;lon;timestamp;P1;durP1;ratioP1;P2;durP2;ratioP2
67516;SDS011;68821;59.134;37.894;2023-07-24T00:00:33;13.40;;;2.72;;
67516;SDS011;68821;59.134;37.894;2023-07-24T00:03:02;9.38;;;2.40;;
67516;SDS011;68821;59.134;37.894;2023-07-24T00:05:28;5.50;;;1.80;;
67516;SDS011;68821;59.134;37.894;2023-07-24T00:07:54;3.83;;;1.48;;
67516;SDS011;68821;59.134;37.894;2023-07-24T00:10:20;3.53;;;1.67;;
67516;SDS011;68821;59.134;37.894;2023-07-24T00:12:46;2.83;;;1.67;;
67516;SDS011;68821;59.134;37.894;2023-07-24T00:15:12;8.60;;;2.05;;
67516;SDS011;68821;59.134;37.894;2023-07-24T00:17:38;4.55;;;1.50;;
67516;SDS011;68821;59.134;37.894;2023-07-24T00:20:04;3.33;;;1.50;;
67516;SDS011;68821;59.134;37.894;2023-07-24T00:22:31;6.10;;;1.70;;
67516;SDS011;68821;59.134;37.894;2023-07-24T00:24:57;6.60;;;1.77;;
67516;SDS011;68821;59.134;37.894;2023-07-24T00:27:23;5.93;;;1.40;;
67516;SDS011;68821;59.134;37.894;2023-07-24T00:29:49;4.45;;;1.70;;
67516;SDS011;68821;59.134;37.894;2023-07-24T00:32:15;4.05;;;1.83;;
67516;SDS011;68821;59.134;37.894;2023-07-24T00:34:41;4.40;;;1.70;;
67516;SDS011;68821;59.134;37.894;2023-07-24T00:37:07;3.47;;;1.60;;
67516;SDS011;68821;59.134;37.894;2023-07-24T00:39:33;5.13;;;1.70;;
67516;SDS011;68821;59.134;37.894;2023-07-24T00:41:59;3.70;;;1.50;;
67516;SDS011;68821;59.134;37.894;2023-07-24T00:44:27;4.72;;;1.42;;
67516;SDS011;68821;59.134;37.894;2023-07-24T00:46:53;5.95;;;1.60;;
67516;SDS011;68821;59.134;37.894;2023-07-24T00:49:19;3.80;;;1.60;;
67516;SDS011;68821;59.134;37.894;2023-07-24T00:51:46;3.90;;;1.75;;
67516;SDS011;68821;59.134;37.894;2023-07-24T00:54:12;4.78;;;1.65;;
67516;SDS011;68821;59.134;37.894;2023-07-24T00:56:41;5.07;;;1.63;;
67516;SDS011;68821;59.134;37.894;2023-07-24T00:59:10;3.83;;;1.45;;
67516;SDS011;68821;59.134;37.894;2023-07-24T01:01:36;3.92;;;1.38;;
67516;SDS011;68821;59.134;37.894;2023-07-24T01:04:05;3.50;;;1.50;;
67516;SDS011;68821;59.134;37.894;2023-07-24T01:08:58;4.53;;;1.80;;
67516;SDS011;68821;59.134;37.894;2023-07-24T01:11:24;9.48;;;1.40;;
67516;SDS011;68821;59.134;37.894;2023-07-24T01:16:59;5.18;;;1.35;;
67516;SDS011;68821;59.134;37.894;2023-07-24T01:22:08;3.47;;;1.50;;
67516;SDS011;68821;59.134;37.894;2023-07-24T01:25:09;6.55;;;1.70;;
67516;SDS011;68821;59.134;37.894;2023-07-24T01:27:42;2.80;;;1.27;;
67516;SDS011;68821;59.134;37.894;2023-07-24T01:30:09;3.10;;;1.55;;
67516;SDS011;68821;59.134;37.894;2023-07-24T01:35:02;2.67;;;1.25;;
67516;SDS011;68821;59.134;37.894;2023-07-24T01:37:29;5.32;;;1.52;;
67516;SDS011;68821;59.134;37.894;2023-07-24T01:39:57;3.85;;;1.58;;
67516;SDS011;68821;59.134;37.894;2023-07-24T01:42:24;3.67;;;1.60;;
67516;SDS011;68821;59.134;37.894;2023-07-24T01:44:54;3.13;;;1.40;;
67516;SDS011;68821;59.134;37.894;2023-07-24T01:47:21;2.67;;;1.17;;
67516;SDS011;68821;59.134;37.894;2023-07-24T01:49:47;3.17;;;1.48;;
67516;SDS011;68821;59.134;37.894;2023-07-24T01:52:13;3.60;;;1.50;;
67516;SDS011;68821;59.134;37.894;2023-07-24T01:54:39;4.10;;;1.45;;
67516;SDS011;68821;59.134;37.894;2023-07-24T01:57:06;7.05;;;1.48;;
67516;SDS011;68821;59.134;37.894;2023-07-24T01:59:32;6.88;;;1.83;;
67516;SDS011;68821;59.134;37.894;2023-07-24T02:01:58;3.60;;;1.40;;
67516;SDS011;68821;59.134;37.894;2023-07-24T02:04:24;4.22;;;1.45;;
67516;SDS011;68821;59.134;37.894;2023-07-24T02:06:50;3.47;;;1.40;;
67516;SDS011;68821;59.134;37.894;2023-07-24T02:09:19;3.50;;;1.50;;
67516;SDS011;68821;59.134;37.894;2023-07-24T02:11:45;4.80;;;1.58;;
67516;SDS011;68821;59.134;37.894;2023-07-24T02:14:12;4.13;;;1.30;;
67516;SDS011;68821;59.134;37.894;2023-07-24T02:16:40;7.00;;;1.60;;
67516;SDS011;68821;59.134;37.894;2023-07-24T02:19:06;4.70;;;1.30;;
67516;SDS011;68821;59.134;37.894;2023-07-24T02:21:32;4.57;;;1.73;;
67516;SDS011;68821;59.134;37.894;2023-07-24T02:23:58;4.70;;;1.65;;
67516;SDS011;68821;59.134;37.894;2023-07-24T02:26:24;4.55;;;1.60;;
67516;SDS011;68821;59.134;37.894;2023-07-24T02:28:50;5.68;;;1.90;;
67516;SDS011;68821;59.134;37.894;2023-07-24T02:31:16;2.97;;;1.38;;
67516;SDS011;68821;59.134;37.894;2023-07-24T02:33:42;6.53;;;1.90;;
67516;SDS011;68821;59.134;37.894;2023-07-24T02:36:08;4.72;;;1.70;;
67516;SDS011;68821;59.134;37.894;2023-07-24T02:38:34;6.05;;;1.60;;
67516;SDS011;68821;59.134;37.894;2023-07-24T02:41:00;7.50;;;1.80;;
67516;SDS011;68821;59.134;37.894;2023-07-24T02:43:26;7.22;;;1.92;;
67516;SDS011;68821;59.134;37.894;2023-07-24T02:45:52;4.75;;;1.60;;
67516;SDS011;68821;59.134;37.894;2023-07-24T02:48:17;3.20;;;1.30;;
67516;SDS011;68821;59.134;37.894;2023-07-24T02:50:43;3.80;;;1.50;;
67516;SDS011;68821;59.134;37.894;2023-07-24T02:53:09;4.13;;;1.63;;
67516;SDS011;68821;59.134;37.894;2023-07-24T02:55:36;4.75;;;1.70;;
67516;SDS011;68821;59.134;37.894;2023-07-24T02:58:02;4.47;;;1.40;;
67516;SDS011;68821;59.134;37.894;2023-07-24T03:00:28;5.50;;;1.55;;
67516;SDS011;68821;59.134;37.894;2023-07-24T03:02:54;3.90;;;1.52;;
67516;SDS011;68821;59.134;37.894;2023-07-24T03:05:20;3.50;;;1.25;;
67516;SDS011;68821;59.134;37.894;2023-07-24T03:07:46;3.38;;;1.45;;
67516;SDS011;68821;59.134;37.894;2023-07-24T03:10:11;3.95;;;1.65;;
67516;SDS011;68821;59.134;37.894;2023-07-24T03:12:37;3.58;;;1.40;;
67516;SDS011;68821;59.134;37.894;2023-07-24T03:15:04;4.00;;;1.60;;
67516;SDS011;68821;59.134;37.894;2023-07-24T03:17:30;7.10;;;1.95;;
67516;SDS011;68821;59.134;37.894;2023-07-24T03:19:56;5.25;;;2.45;;
67516;SDS011;68821;59.134;37.894;2023-07-24T03:22:22;4.63;;;1.60;;
67516;SDS011;68821;59.134;37.894;2023-07-24T03:24:48;4.50;;;1.60;;
67516;SDS011;68821;59.134;37.894;2023-07-24T03:27:14;3.70;;;1.75;;
67516;SDS011;68821;59.134;37.894;2023-07-24T03:29:40;5.68;;;1.50;;
67516;SDS011;68821;59.134;37.894;2023-07-24T03:32:06;3.42;;;1.60;;
67516;SDS011;68821;59.134;37.894;2023-07-24T03:34:33;4.10;;;1.88;;
67516;SDS011;68821;59.134;37.894;2023-07-24T03:36:59;3.88;;;1.58;;
67516;SDS011;68821;59.134;37.894;2023-07-24T03:39:25;3.85;;;1.60;;
67516;SDS011;68821;59.134;37.894;2023-07-24T03:41:51;3.60;;;1.33;;
67516;SDS011;68821;59.134;37.894;2023-07-24T03:44:17;5.57;;;2.75;;
67516;SDS011;68821;59.134;37.894;2023-07-24T03:46:43;6.13;;;2.10;;
67516;SDS011;68821;59.134;37.894;2023-07-24T03:49:09;4.35;;;1.50;;
67516;SDS011;68821;59.134;37.894;2023-07-24T03:51:35;6.20;;;1.95;;
67516;SDS011;68821;59.134;37.894;2023-07-24T03:54:01;4.60;;;2.00;;
67516;SDS011;68821;59.134;37.894;2023-07-24T03:56:26;6.57;;;1.83;;
67516;SDS011;68821;59.134;37.894;2023-07-24T03:58:52;10.07;;;1.85;;
67516;SDS011;68821;59.134;37.894;2023-07-24T04:01:18;4.20;;;2.05;;
67516;SDS011;68821;59.134;37.894;2023-07-24T04:03:44;4.90;;;1.73;;
67516;SDS011;68821;59.134;37.894;2023-07-24T04:06:10;4.40;;;1.60;;
67516;SDS011;68821;59.134;37.894;2023-07-24T04:08:37;5.45;;;1.60;;
67516;SDS011;68821;59.134;37.894;2023-07-24T04:11:03;3.35;;;1.40;;
67516;SDS011;68821;59.134;37.894;2023-07-24T04:15:56;3.67;;;1.63;;
67516;SDS011;68821;59.134;37.894;2023-07-24T04:20:49;2.97;;;1.30;;
67516;SDS011;68821;59.134;37.894;2023-07-24T04:23:17;5.82;;;2.03;;
67516;SDS011;68821;59.134;37.894;2023-07-24T04:25:42;3.42;;;1.55;;
67516;SDS011;68821;59.134;37.894;2023-07-24T04:28:08;4.43;;;1.73;;
67516;SDS011;68821;59.134;37.894;2023-07-24T04:30:34;5.55;;;1.70;;
67516;SDS011;68821;59.134;37.894;2023-07-24T04:33:00;4.20;;;2.17;;
67516;SDS011;68821;59.134;37.894;2023-07-24T04:35:26;4.10;;;1.67;;
67516;SDS011;68821;59.134;37.894;2023-07-24T04:37:52;3.45;;;1.55;;
67516;SDS011;68821;59.134;37.894;2023-07-24T04:40:18;4.97;;;1.70;;
67516;SDS011;68821;59.134;37.894;2023-07-24T04:42:44;4.72;;;1.70;;
67516;SDS011;68821;59.134;37.894;2023-07-24T04:45:10;3.10;;;1.40;;
67516;SDS011;68821;59.134;37.894;2023-07-24T04:47:36;3.03;;;1.58;;
67516;SDS011;68821;59.134;37.894;2023-07-24T04:50:03;4.32;;;1.80;;
67516;SDS011;68821;59.134;37.894;2023-07-24T04:52:30;5.10;;;1.77;;
67516;SDS011;68821;59.134;37.894;2023-07-24T04:54:56;4.78;;;1.77;;
67516;SDS011;68821;59.134;37.894;2023-07-24T04:57:22;3.90;;;1.77;;
67516;SDS011;68821;59.134;37.894;2023-07-24T04:59:48;4.22;;;1.77;;
67516;SDS011;68821;59.134;37.894;2023-07-24T05:02:14;5.88;;;1.42;;
67516;SDS011;68821;59.134;37.894;2023-07-24T05:04:40;4.25;;;1.50;;
67516;SDS011;68821;59.134;37.894;2023-07-24T05:07:07;3.80;;;1.75;;
67516;SDS011;68821;59.134;37.894;2023-07-24T05:09:32;3.50;;;1.65;;
67516;SDS011;68821;59.134;37.894;2023-07-24T05:11:59;6.60;;;1.88;;
67516;SDS011;68821;59.134;37.894;2023-07-24T05:14:25;4.07;;;1.70;;
67516;SDS011;68821;59.134;37.894;2023-07-24T05:16:51;4.90;;;2.88;;
67516;SDS011;68821;59.134;37.894;2023-07-24T05:19:16;5.45;;;1.80;;
67516;SDS011;68821;59.134;37.894;2023-07-24T05:21:42;3.63;;;1.50;;
67516;SDS011;68821;59.134;37.894;2023-07-24T05:24:08;4.53;;;1.80;;
67516;SDS011;68821;59.134;37.894;2023-07-24T05:26:34;5.60;;;2.28;;
67516;SDS011;68821;59.134;37.894;2023-07-24T05:29:00;5.57;;;1.85;;
67516;SDS011;68821;59.134;37.894;2023-07-24T05:31:26;5.88;;;1.90;;
67516;SDS011;68821;59.134;37.894;2023-07-24T05:33:52;4.20;;;1.75;;
67516;SDS011;68821;59.134;37.894;2023-07-24T05:36:18;3.83;;;1.70;;
67516;SDS011;68821;59.134;37.894;2023-07-24T05:38:44;5.15;;;2.00;;
67516;SDS011;68821;59.134;37.894;2023-07-24T05:41:10;4.68;;;1.63;;
67516;SDS011;68821;59.134;37.894;2023-07-24T05:43:36;4.10;;;1.70;;
67516;SDS011;68821;59.134;37.894;2023-07-24T05:46:02;4.63;;;1.73;;
67516;SDS011;68821;59.134;37.894;2023-07-24T05:48:28;3.55;;;1.55;;
67516;SDS011;68821;59.134;37.894;2023-07-24T05:50:54;5.95;;;1.70;;
67516;SDS011;68821;59.134;37.894;2023-07-24T05:53:20;4.85;;;2.40;;
67516;SDS011;68821;59.134;37.894;2023-07-24T05:55:46;3.22;;;1.20;;
67516;SDS011;68821;59.134;37.894;2023-07-24T05:58:12;6.60;;;1.67;;
67516;SDS011;68821;59.134;37.894;2023-07-24T06:00:39;3.78;;;1.75;;
67516;SDS011;68821;59.134;37.894;2023-07-24T06:03:05;5.05;;;1.58;;
67516;SDS011;68821;59.134;37.894;2023-07-24T06:05:31;3.92;;;1.70;;
67516;SDS011;68821;59.134;37.894;2023-07-24T06:07:57;4.05;;;1.60;;
67516;SDS011;68821;59.134;37.894;2023-07-24T06:10:23;4.13;;;1.77;;
67516;SDS011;68821;59.134;37.894;2023-07-24T06:12:49;5.47;;;1.85;;
67516;SDS011;68821;59.134;37.894;2023-07-24T06:15:15;5.60;;;2.03;;
67516;SDS011;68821;59.134;37.894;2023-07-24T06:17:42;5.60;;;2.03;;
67516;SDS011;68821;59.134;37.894;2023-07-24T06:20:08;4.35;;;2.20;;
67516;SDS011;68821;59.134;37.894;2023-07-24T06:22:34;6.22;;;1.83;;
67516;SDS011;68821;59.134;37.894;2023-07-24T06:25:00;6.97;;;1.95;;
67516;SDS011;68821;59.134;37.894;2023-07-24T06:27:26;5.22;;;2.75;;
67516;SDS011;68821;59.134;37.894;2023-07-24T06:29:52;4.30;;;1.67;;
67516;SDS011;68821;59.134;37.894;2023-07-24T06:32:18;8.02;;;2.05;;
67516;SDS011;68821;59.134;37.894;2023-07-24T06:34:44;5.38;;;2.30;;
67516;SDS011;68821;59.134;37.894;2023-07-24T06:37:10;4.63;;;2.20;;
67516;SDS011;68821;59.134;37.894;2023-07-24T06:39:36;4.65;;;2.10;;
67516;SDS011;68821;59.134;37.894;2023-07-24T06:42:02;4.85;;;2.17;;
67516;SDS011;68821;59.134;37.894;2023-07-24T06:44:28;5.53;;;2.00;;
67516;SDS011;68821;59.134;37.894;2023-07-24T06:46:54;3.90;;;1.55;;
67516;SDS011;68821;59.134;37.894;2023-07-24T06:49:20;5.78;;;2.08;;
67516;SDS011;68821;59.134;37.894;2023-07-24T06:51:46;4.57;;;1.80;;
67516;SDS011;68821;59.134;37.894;2023-07-24T06:54:12;4.65;;;1.77;;
67516;SDS011;68821;59.134;37.894;2023-07-24T06:56:38;4.68;;;1.55;;
67516;SDS011;68821;59.134;37.894;2023-07-24T06:59:04;5.68;;;2.28;;
67516;SDS011;68821;59.134;37.894;2023-07-24T07:01:30;5.65;;;2.00;;
67516;SDS011;68821;59.134;37.894;2023-07-24T07:03:56;4.20;;;1.88;;
67516;SDS011;68821;59.134;37.894;2023-07-24T07:06:22;3.35;;;1.42;;
67516;SDS011;68821;59.134;37.894;2023-07-24T07:08:48;4.18;;;1.70;;
67516;SDS011;68821;59.134;37.894;2023-07-24T07:11:14;4.90;;;1.60;;
67516;SDS011;68821;59.134;37.894;2023-07-24T07:13:40;6.95;;;1.85;;
67516;SDS011;68821;59.134;37.894;2023-07-24T07:16:06;4.00;;;1.67;;
67516;SDS011;68821;59.134;37.894;2023-07-24T07:18:32;4.50;;;1.60;;
67516;SDS011;68821;59.134;37.894;2023-07-24T07:20:58;3.97;;;1.50;;
67516;SDS011;68821;59.134;37.894;2023-07-24T07:23:24;3.50;;;1.42;;
67516;SDS011;68821;59.134;37.894;2023-07-24T07:25:51;3.55;;;1.65;;
67516;SDS011;68821;59.134;37.894;2023-07-24T07:28:17;3.45;;;1.40;;
67516;SDS011;68821;59.134;37.894;2023-07-24T07:30:44;4.28;;;1.40;;
67516;SDS011;68821;59.134;37.894;2023-07-24T07:33:11;3.08;;;1.38;;
67516;SDS011;68821;59.134;37.894;2023-07-24T07:35:37;5.38;;;1.42;;
67516;SDS011;68821;59.134;37.894;2023-07-24T07:38:03;3.88;;;1.65;;
67516;SDS011;68821;59.134;37.894;2023-07-24T07:40:33;4.10;;;1.60;;
67516;SDS011;68821;59.134;37.894;2023-07-24T07:43:03;3.22;;;1.38;;
67516;SDS011;68821;59.134;37.894;2023-07-24T07:45:29;3.63;;;1.70;;
67516;SDS011;68821;59.134;37.894;2023-07-24T07:47:55;4.20;;;1.55;;
67516;SDS011;68821;59.134;37.894;2023-07-24T07:50:21;3.53;;;1.15;;
67516;SDS011;68821;59.134;37.894;2023-07-24T07:52:51;6.32;;;1.20;;
67516;SDS011;68821;59.134;37.894;2023-07-24T07:55:17;3.60;;;1.30;;
67516;SDS011;68821;59.134;37.894;2023-07-24T07:57:44;3.47;;;1.35;;
67516;SDS011;68821;59.134;37.894;2023-07-24T08:00:10;4.60;;;1.40;;
67516;SDS011;68821;59.134;37.894;2023-07-24T08:05:07;3.15;;;1.20;;
67516;SDS011;68821;59.134;37.894;2023-07-24T08:07:35;3.78;;;1.20;;
67516;SDS011;68821;59.134;37.894;2023-07-24T08:10:01;3.55;;;1.55;;
67516;SDS011;68821;59.134;37.894;2023-07-24T08:12:30;4.00;;;1.38;;
67516;SDS011;68821;59.134;37.894;2023-07-24T08:14:56;3.22;;;1.30;;
67516;SDS011;68821;59.134;37.894;2023-07-24T08:17:22;3.85;;;1.50;;
67516;SDS011;68821;59.134;37.894;2023-07-24T08:19:48;3.67;;;1.33;;
67516;SDS011;68821;59.134;37.894;2023-07-24T08:22:14;2.97;;;1.40;;
67516;SDS011;68821;59.134;37.894;2023-07-24T08:24:40;4.32;;;1.10;;
67516;SDS011;68821;59.134;37.894;2023-07-24T08:27:06;3.05;;;1.10;;
67516;SDS011;68821;59.134;37.894;2023-07-24T08:29:32;4.60;;;1.10;;
67516;SDS011;68821;59.134;37.894;2023-07-24T08:32:01;2.60;;;1.10;;
67516;SDS011;68821;59.134;37.894;2023-07-24T08:34:27;3.58;;;1.30;;
67516;SDS011;68821;59.134;37.894;2023-07-24T08:36:53;4.43;;;1.25;;
67516;SDS011;68821;59.134;37.894;2023-07-24T08:39:19;3.55;;;1.20;;
67516;SDS011;68821;59.134;37.894;2023-07-24T08:41:45;5.38;;;2.85;;
67516;SDS011;68821;59.134;37.894;2023-07-24T08:44:11;3.53;;;1.20;;
67516;SDS011;68821;59.134;37.894;2023-07-24T08:46:38;2.55;;;1.23;;
67516;SDS011;68821;59.134;37.894;2023-07-24T08:49:10;3.13;;;1.38;;
67516;SDS011;68821;59.134;37.894;2023-07-24T08:51:39;2.22;;;1.00;;
67516;SDS011;68821;59.134;37.894;2023-07-24T08:54:06;10.32;;;3.05;;
67516;SDS011;68821;59.134;37.894;2023-07-24T08:56:33;6.35;;;1.60;;
67516;SDS011;68821;59.134;37.894;2023-07-24T08:59:03;5.13;;;1.55;;
67516;SDS011;68821;59.134;37.894;2023-07-24T09:01:29;5.55;;;1.60;;
67516;SDS011;68821;59.134;37.894;2023-07-24T09:03:55;23.92;;;4.03;;
67516;SDS011;68821;59.134;37.894;2023-07-24T09:06:22;20.10;;;3.58;;
67516;SDS011;68821;59.134;37.894;2023-07-24T09:08:48;13.43;;;2.92;;
67516;SDS011;68821;59.134;37.894;2023-07-24T09:11:14;7.90;;;2.47;;
67516;SDS011;68821;59.134;37.894;2023-07-24T09:13:41;8.05;;;2.35;;
67516;SDS011;68821;59.134;37.894;2023-07-24T09:16:08;8.07;;;2.40;;
67516;SDS011;68821;59.134;37.894;2023-07-24T09:18:41;7.43;;;2.35;;
67516;SDS011;68821;59.134;37.894;2023-07-24T09:21:08;2.97;;;1.02;;
67516;SDS011;68821;59.134;37.894;2023-07-24T09:23:37;7.32;;;1.63;;
67516;SDS011;68821;59.134;37.894;2023-07-24T09:26:08;3.88;;;1.15;;
67516;SDS011;68821;59.134;37.894;2023-07-24T09:28:35;8.40;;;3.60;;
67516;SDS011;68821;59.134;37.894;2023-07-24T09:33:35;11.32;;;4.07;;
67516;SDS011;68821;59.134;37.894;2023-07-24T09:36:09;10.02;;;4.10;;
67516;SDS011;68821;59.134;37.894;2023-07-24T09:38:36;50.85;;;16.05;;
67516;SDS011;68821;59.134;37.894;2023-07-24T09:41:04;59.95;;;19.45;;
67516;SDS011;68821;59.134;37.894;2023-07-24T09:43:31;58.38;;;20.40;;
67516;SDS011;68821;59.134;37.894;2023-07-24T09:45:57;55.03;;;19.38;;
67516;SDS011;68821;59.134;37.894;2023-07-24T09:48:24;60.60;;;22.27;;
67516;SDS011;68821;59.134;37.894;2023-07-24T09:50:56;50.33;;;19.67;;
67516;SDS011;68821;59.134;37.894;2023-07-24T09:53:39;56.85;;;20.48;;
67516;SDS011;68821;59.134;37.894;2023-07-24T09:56:12;52.35;;;18.83;;
67516;SDS011;68821;59.134;37.894;2023-07-24T09:58:40;41.53;;;16.13;;
67516;SDS011;68821;59.134;37.894;2023-07-24T10:01:07;85.28;;;31.13;;
67516;SDS011;68821;59.134;37.894;2023-07-24T10:03:34;76.85;;;32.63;;
67516;SDS011;68821;59.134;37.894;2023-07-24T10:06:03;57.00;;;28.90;;
67516;SDS011;68821;59.134;37.894;2023-07-24T10:08:30;64.05;;;30.25;;
67516;SDS011;68821;59.134;37.894;2023-07-24T10:10:58;42.30;;;22.50;;
67516;SDS011;68821;59.134;37.894;2023-07-24T10:13:25;69.43;;;39.90;;
67516;SDS011;68821;59.134;37.894;2023-07-24T10:15:52;73.20;;;36.15;;
67516;SDS011;68821;59.134;37.894;2023-07-24T10:18:25;68.70;;;36.50;;
67516;SDS011;68821;59.134;37.894;2023-07-24T10:21:06;4.68;;;2.00;;
67516;SDS011;68821;59.134;37.894;2023-07-24T10:23:34;3.90;;;1.50;;
67516;SDS011;68821;59.134;37.894;2023-07-24T10:26:09;7.20;;;2.60;;
67516;SDS011;68821;59.134;37.894;2023-07-24T10:28:39;14.07;;;2.17;;
67516;SDS011;68821;59.134;37.894;2023-07-24T10:31:18;11.73;;;1.60;;
67516;SDS011;68821;59.134;37.894;2023-07-24T10:33:44;3.63;;;0.90;;
67516;SDS011;68821;59.134;37.894;2023-07-24T10:36:11;2.45;;;0.98;;
67516;SDS011;68821;59.134;37.894;2023-07-24T10:38:40;3.50;;;0.95;;
67516;SDS011;68821;59.134;37.894;2023-07-24T10:41:08;3.60;;;0.82;;
67516;SDS011;68821;59.134;37.894;2023-07-24T10:46:07;1.83;;;0.60;;
67516;SDS011;68821;59.134;37.894;2023-07-24T10:48:34;2.78;;;1.20;;
67516;SDS011;68821;59.134;37.894;2023-07-24T10:51:05;2.30;;;0.80;;
67516;SDS011;68821;59.134;37.894;2023-07-24T10:53:35;3.00;;;1.20;;
67516;SDS011;68821;59.134;37.894;2023-07-24T10:56:03;2.22;;;0.90;;
67516;SDS011;68821;59.134;37.894;2023-07-24T10:58:30;2.65;;;1.10;;
67516;SDS011;68821;59.134;37.894;2023-07-24T11:00:57;2.92;;;1.25;;
67516;SDS011;68821;59.134;37.894;2023-07-24T11:03:24;4.00;;;0.95;;
67516;SDS011;68821;59.134;37.894;2023-07-24T11:05:51;3.35;;;1.08;;
67516;SDS011;68821;59.134;37.894;2023-07-24T11:08:19;4.78;;;1.05;;
67516;SDS011;68821;59.134;37.894;2023-07-24T11:10:46;3.03;;;1.00;;
67516;SDS011;68821;59.134;37.894;2023-07-24T11:13:18;2.83;;;1.15;;
67516;SDS011;68821;59.134;37.894;2023-07-24T11:15:47;5.03;;;1.38;;
67516;SDS011;68821;59.134;37.894;2023-07-24T11:18:15;3.80;;;1.10;;
67516;SDS011;68821;59.134;37.894;2023-07-24T11:20:47;4.97;;;1.20;;
67516;SDS011;68821;59.134;37.894;2023-07-24T11:23:13;2.20;;;1.05;;
67516;SDS011;68821;59.134;37.894;2023-07-24T11:25:40;4.05;;;1.20;;
67516;SDS011;68821;59.134;37.894;2023-07-24T11:28:07;4.43;;;1.10;;
67516;SDS011;68821;59.134;37.894;2023-07-24T11:30:35;2.08;;;0.88;;
67516;SDS011;68821;59.134;37.894;2023-07-24T11:35:29;2.65;;;1.10;;
67516;SDS011;68821;59.134;37.894;2023-07-24T11:37:55;2.22;;;1.10;;
67516;SDS011;68821;59.134;37.894;2023-07-24T11:40:29;4.57;;;1.20;;
67516;SDS011;68821;59.134;37.894;2023-07-24T11:43:16;3.22;;;1.10;;
67516;SDS011;68821;59.134;37.894;2023-07-24T11:45:44;2.72;;;1.10;;
67516;SDS011;68821;59.134;37.894;2023-07-24T11:48:14;2.80;;;1.13;;
67516;SDS011;68821;59.134;37.894;2023-07-24T11:50:44;5.80;;;1.17;;
67516;SDS011;68821;59.134;37.894;2023-07-24T11:55:52;4.30;;;0.90;;
67516;SDS011;68821;59.134;37.894;2023-07-24T11:58:19;4.00;;;1.13;;
67516;SDS011;68821;59.134;37.894;2023-07-24T12:00:46;3.90;;;1.20;;
67516;SDS011;68821;59.134;37.894;2023-07-24T12:03:35;3.80;;;1.13;;
67516;SDS011;68821;59.134;37.894;2023-07-24T12:06:00;4.63;;;1.20;;
67516;SDS011;68821;59.134;37.894;2023-07-24T12:08:31;2.45;;;1.10;;
67516;SDS011;68821;59.134;37.894;2023-07-24T12:11:01;1.98;;;0.90;;
67516;SDS011;68821;59.134;37.894;2023-07-24T12:13:28;4.30;;;1.10;;
67516;SDS011;68821;59.134;37.894;2023-07-24T12:15:54;3.08;;;1.02;;
67516;SDS011;68821;59.134;37.894;2023-07-24T12:18:20;3.20;;;1.20;;
67516;SDS011;68821;59.134;37.894;2023-07-24T12:20:46;2.60;;;1.30;;
67516;SDS011;68821;59.134;37.894;2023-07-24T12:23:13;2.83;;;1.05;;
67516;SDS011;68821;59.134;37.894;2023-07-24T12:25:39;3.28;;;1.10;;
67516;SDS011;68821;59.134;37.894;2023-07-24T12:28:05;2.70;;;1.20;;
67516;SDS011;68821;59.134;37.894;2023-07-24T12:30:31;2.80;;;1.02;;
67516;SDS011;68821;59.134;37.894;2023-07-24T12:32:57;3.03;;;1.10;;
67516;SDS011;68821;59.134;37.894;2023-07-24T12:35:23;2.30;;;0.98;;
67516;SDS011;68821;59.134;37.894;2023-07-24T12:37:49;2.30;;;1.20;;
67516;SDS011;68821;59.134;37.894;2023-07-24T12:40:15;3.90;;;1.50;;
67516;SDS011;68821;59.134;37.894;2023-07-24T12:42:41;3.30;;;1.23;;
67516;SDS011;68821;59.134;37.894;2023-07-24T12:45:08;3.15;;;1.13;;
67516;SDS011;68821;59.134;37.894;2023-07-24T12:47:34;3.88;;;1.15;;
67516;SDS011;68821;59.134;37.894;2023-07-24T12:50:00;4.90;;;1.10;;
67516;SDS011;68821;59.134;37.894;2023-07-24T12:52:28;2.33;;;1.00;;
67516;SDS011;68821;59.134;37.894;2023-07-24T12:54:55;2.58;;;1.10;;
67516;SDS011;68821;59.134;37.894;2023-07-24T12:57:21;2.90;;;1.15;;
67516;SDS011;68821;59.134;37.894;2023-07-24T12:59:47;3.58;;;1.10;;
67516;SDS011;68821;59.134;37.894;2023-07-24T13:02:13;3.00;;;1.00;;
67516;SDS011;68821;59.134;37.894;2023-07-24T13:04:39;2.60;;;1.20;;
67516;SDS011;68821;59.134;37.894;2023-07-24T13:07:05;3.83;;;1.10;;
67516;SDS011;68821;59.134;37.894;2023-07-24T13:09:31;3.55;;;1.10;;
67516;SDS011;68821;59.134;37.894;2023-07-24T13:11:57;3.72;;;1.20;;
67516;SDS011;68821;59.134;37.894;2023-07-24T13:14:23;2.67;;;1.10;;
67516;SDS011;68821;59.134;37.894;2023-07-24T13:16:50;5.82;;;1.30;;
67516;SDS011;68821;59.134;37.894;2023-07-24T13:19:16;4.18;;;1.50;;
67516;SDS011;68821;59.134;37.894;2023-07-24T13:21:42;3.28;;;1.27;;
67516;SDS011;68821;59.134;37.894;2023-07-24T13:24:09;2.92;;;1.13;;
67516;SDS011;68821;59.134;37.894;2023-07-24T13:26:35;3.42;;;1.13;;
67516;SDS011;68821;59.134;37.894;2023-07-24T13:29:02;3.80;;;1.02;;
67516;SDS011;68821;59.134;37.894;2023-07-24T13:31:28;2.75;;;1.20;;
67516;SDS011;68821;59.134;37.894;2023-07-24T13:33:56;4.50;;;1.40;;
67516;SDS011;68821;59.134;37.894;2023-07-24T13:36:22;2.70;;;1.00;;
67516;SDS011;68821;59.134;37.894;2023-07-24T13:38:48;3.58;;;1.30;;
67516;SDS011;68821;59.134;37.894;2023-07-24T13:41:16;4.97;;;1.40;;
67516;SDS011;68821;59.134;37.894;2023-07-24T13:43:50;5.22;;;1.30;;
67516;SDS011;68821;59.134;37.894;2023-07-24T13:46:16;2.25;;;0.93;;
67516;SDS011;68821;59.134;37.894;2023-07-24T13:48:45;3.25;;;1.20;;
67516;SDS011;68821;59.134;37.894;2023-07-24T13:51:11;3.47;;;1.00;;
67516;SDS011;68821;59.134;37.894;2023-07-24T13:53:37;4.63;;;1.27;;
67516;SDS011;68821;59.134;37.894;2023-07-24T13:56:03;4.63;;;1.30;;
67516;SDS011;68821;59.134;37.894;2023-07-24T13:58:32;3.30;;;1.23;;
67516;SDS011;68821;59.134;37.894;2023-07-24T14:00:58;6.22;;;2.00;;
67516;SDS011;68821;59.134;37.894;2023-07-24T14:03:32;6.68;;;1.60;;
67516;SDS011;68821;59.134;37.894;2023-07-24T14:05:58;3.95;;;1.50;;
67516;SDS011;68821;59.134;37.894;2023-07-24T14:08:24;4.70;;;1.30;;
67516;SDS011;68821;59.134;37.894;2023-07-24T14:10:50;5.10;;;1.30;;
67516;SDS011;68821;59.134;37.894;2023-07-24T14:13:17;5.03;;;1.40;;
67516;SDS011;68821;59.134;37.894;2023-07-24T14:15:43;5.65;;;1.77;;
67516;SDS011;68821;59.134;37.894;2023-07-24T14:18:09;6.18;;;1.70;;
67516;SDS011;68821;59.134;37.894;2023-07-24T14:20:35;3.63;;;1.27;;
67516;SDS011;68821;59.134;37.894;2023-07-24T14:23:02;3.88;;;1.40;;
67516;SDS011;68821;59.134;37.894;2023-07-24T14:25:28;3.55;;;1.20;;
67516;SDS011;68821;59.134;37.894;2023-07-24T14:27:54;6.78;;;1.48;;
67516;SDS011;68821;59.134;37.894;2023-07-24T14:30:20;6.20;;;2.67;;
67516;SDS011;68821;59.134;37.894;2023-07-24T14:32:46;6.80;;;2.42;;
67516;SDS011;68821;59.134;37.894;2023-07-24T14:35:12;7.15;;;2.17;;
67516;SDS011;68821;59.134;37.894;2023-07-24T14:37:39;5.70;;;2.20;;
67516;SDS011;68821;59.134;37.894;2023-07-24T14:40:05;4.97;;;1.70;;
67516;SDS011;68821;59.134;37.894;2023-07-24T14:42:32;4.57;;;1.58;;
67516;SDS011;68821;59.134;37.894;2023-07-24T14:44:58;4.60;;;2.05;;
67516;SDS011;68821;59.134;37.894;2023-07-24T14:47:28;5.03;;;1.83;;
67516;SDS011;68821;59.134;37.894;2023-07-24T14:49:56;4.10;;;1.73;;
67516;SDS011;68821;59.134;37.894;2023-07-24T14:52:26;4.70;;;1.60;;
67516;SDS011;68821;59.134;37.894;2023-07-24T14:54:52;7.97;;;2.20;;
67516;SDS011;68821;59.134;37.894;2023-07-24T14:57:18;5.05;;;1.52;;
67516;SDS011;68821;59.134;37.894;2023-07-24T14:59:44;4.60;;;1.33;;